sensor_id;sensor_type;location;lat;lon;timestamp;P1;durP1;ratioP1;P2;durP2;ratioP2
55469;SDS011;41334;47.872;16.384;2022-10-16T00:02:18;12.90;;;9.13;;
55469;SDS011;41334;47.872;16.384;2022-10-16T00:05:20;13.00;;;9.23;;
55469;SDS011;41334;47.872;16.384;2022-10-16T00:08:22;13.13;;;8.88;;
55469;SDS011;41334;47.872;16.384;2022-10-16T00:11:25;12.43;;;8.38;;
55469;SDS011;41334;47.872;16.384;2022-10-16T00:14:29;13.98;;;7.72;;
55469;SDS011;41334;47.872;16.384;2022-10-16T00:17:31;11.82;;;8.50;;
55469;SDS011;41334;47.872;16.384;2022-10-16T00:20:33;12.48;;;7.72;;
55469;SDS011;41334;47.872;16.384;2022-10-16T00:23:36;14.23;;;8.23;;
55469;SDS011;41334;47.872;16.384;2022-10-16T00:26:38;13.13;;;9.07;;
55469;SDS011;41334;47.872;16.384;2022-10-16T00:29:40;14.38;;;9.57;;
55469;SDS011;41334;47.872;16.384;2022-10-16T00:32:42;14.90;;;9.13;;
55469;SDS011;41334;47.872;16.384;2022-10-16T00:35:44;13.52;;;7.70;;
55469;SDS011;41334;47.872;16.384;2022-10-16T00:38:46;10.73;;;7.95;;
55469;SDS011;41334;47.872;16.384;2022-10-16T00:41:48;11.95;;;8.18;;
55469;SDS011;41334;47.872;16.384;2022-10-16T00:44:51;11.68;;;7.63;;
55469;SDS011;41334;47.872;16.384;2022-10-16T00:47:57;15.05;;;9.90;;
55469;SDS011;41334;47.872;16.384;2022-10-16T00:50:58;11.50;;;7.70;;
55469;SDS011;41334;47.872;16.384;2022-10-16T00:54:02;13.35;;;8.20;;
55469;SDS011;41334;47.872;16.384;2022-10-16T00:57:06;15.85;;;8.68;;
55469;SDS011;41334;47.872;16.384;2022-10-16T01:00:10;19.45;;;11.05;;
55469;SDS011;41334;47.872;16.384;2022-10-16T01:03:24;20.35;;;11.45;;
55469;SDS011;41334;47.872;16.384;2022-10-16T01:06:36;17.00;;;10.85;;
55469;SDS011;41334;47.872;16.384;2022-10-16T01:13:08;20.10;;;10.80;;
55469;SDS011;41334;47.872;16.384;2022-10-16T01:16:18;18.60;;;10.13;;
55469;SDS011;41334;47.872;16.384;2022-10-16T01:26:28;14.50;;;9.10;;
55469;SDS011;41334;47.872;16.384;2022-10-16T01:33:01;18.85;;;10.57;;
55469;SDS011;41334;47.872;16.384;2022-10-16T01:36:25;16.13;;;9.70;;
55469;SDS011;41334;47.872;16.384;2022-10-16T01:39:32;16.85;;;9.90;;
55469;SDS011;41334;47.872;16.384;2022-10-16T01:42:39;20.88;;;11.55;;
55469;SDS011;41334;47.872;16.384;2022-10-16T01:45:55;19.17;;;10.98;;
55469;SDS011;41334;47.872;16.384;2022-10-16T01:48:57;14.98;;;9.43;;
55469;SDS011;41334;47.872;16.384;2022-10-16T01:52:02;17.38;;;9.60;;
55469;SDS011;41334;47.872;16.384;2022-10-16T01:55:08;22.23;;;10.98;;
55469;SDS011;41334;47.872;16.384;2022-10-16T01:58:12;21.55;;;11.48;;
55469;SDS011;41334;47.872;16.384;2022-10-16T02:01:15;18.98;;;10.32;;
55469;SDS011;41334;47.872;16.384;2022-10-16T02:04:24;19.13;;;9.43;;
55469;SDS011;41334;47.872;16.384;2022-10-16T02:07:30;7.95;;;4.70;;
55469;SDS011;41334;47.872;16.384;2022-10-16T02:10:34;20.40;;;10.27;;
55469;SDS011;41334;47.872;16.384;2022-10-16T02:13:44;21.52;;;11.15;;
55469;SDS011;41334;47.872;16.384;2022-10-16T02:16:49;21.33;;;11.50;;
55469;SDS011;41334;47.872;16.384;2022-10-16T02:19:52;21.33;;;10.93;;
55469;SDS011;41334;47.872;16.384;2022-10-16T02:22:56;21.30;;;11.90;;
55469;SDS011;41334;47.872;16.384;2022-10-16T02:26:00;29.25;;;12.18;;
55469;SDS011;41334;47.872;16.384;2022-10-16T02:29:07;20.53;;;12.03;;
55469;SDS011;41334;47.872;16.384;2022-10-16T02:32:13;25.25;;;12.63;;
55469;SDS011;41334;47.872;16.384;2022-10-16T02:35:18;22.08;;;12.15;;
55469;SDS011;41334;47.872;16.384;2022-10-16T02:38:22;20.20;;;12.45;;
55469;SDS011;41334;47.872;16.384;2022-10-16T02:41:26;25.75;;;12.55;;
55469;SDS011;41334;47.872;16.384;2022-10-16T02:44:28;23.05;;;12.50;;
55469;SDS011;41334;47.872;16.384;2022-10-16T02:47:31;20.65;;;10.85;;
55469;SDS011;41334;47.872;16.384;2022-10-16T02:50:33;23.08;;;13.52;;
55469;SDS011;41334;47.872;16.384;2022-10-16T02:53:34;25.92;;;14.57;;
55469;SDS011;41334;47.872;16.384;2022-10-16T02:56:37;24.73;;;14.20;;
55469;SDS011;41334;47.872;16.384;2022-10-16T02:59:38;22.95;;;12.65;;
55469;SDS011;41334;47.872;16.384;2022-10-16T03:02:40;24.25;;;13.10;;
55469;SDS011;41334;47.872;16.384;2022-10-16T03:05:43;26.52;;;13.10;;
55469;SDS011;41334;47.872;16.384;2022-10-16T03:08:47;25.88;;;12.95;;
55469;SDS011;41334;47.872;16.384;2022-10-16T03:11:48;30.23;;;15.25;;
55469;SDS011;41334;47.872;16.384;2022-10-16T03:14:50;26.77;;;14.63;;
55469;SDS011;41334;47.872;16.384;2022-10-16T03:17:52;21.77;;;12.27;;
55469;SDS011;41334;47.872;16.384;2022-10-16T03:20:54;23.60;;;12.70;;
55469;SDS011;41334;47.872;16.384;2022-10-16T03:23:55;26.75;;;14.25;;
55469;SDS011;41334;47.872;16.384;2022-10-16T03:26:57;25.80;;;13.45;;
55469;SDS011;41334;47.872;16.384;2022-10-16T03:29:59;23.25;;;13.52;;
55469;SDS011;41334;47.872;16.384;2022-10-16T03:33:00;27.83;;;12.45;;
55469;SDS011;41334;47.872;16.384;2022-10-16T03:36:02;27.27;;;13.25;;
55469;SDS011;41334;47.872;16.384;2022-10-16T03:39:04;24.95;;;13.40;;
55469;SDS011;41334;47.872;16.384;2022-10-16T03:42:06;24.23;;;13.98;;
55469;SDS011;41334;47.872;16.384;2022-10-16T03:45:08;29.70;;;14.35;;
55469;SDS011;41334;47.872;16.384;2022-10-16T03:48:10;24.92;;;14.63;;
55469;SDS011;41334;47.872;16.384;2022-10-16T03:51:12;21.77;;;12.70;;
55469;SDS011;41334;47.872;16.384;2022-10-16T03:54:13;28.38;;;14.23;;
55469;SDS011;41334;47.872;16.384;2022-10-16T03:57:15;26.73;;;13.80;;
55469;SDS011;41334;47.872;16.384;2022-10-16T04:00:17;20.52;;;11.75;;
55469;SDS011;41334;47.872;16.384;2022-10-16T04:03:19;26.80;;;13.13;;
55469;SDS011;41334;47.872;16.384;2022-10-16T04:06:21;24.45;;;14.10;;
55469;SDS011;41334;47.872;16.384;2022-10-16T04:09:23;25.13;;;13.93;;
55469;SDS011;41334;47.872;16.384;2022-10-16T04:12:25;16.48;;;9.60;;
55469;SDS011;41334;47.872;16.384;2022-10-16T04:15:28;28.58;;;14.38;;
55469;SDS011;41334;47.872;16.384;2022-10-16T04:18:30;25.15;;;13.98;;
55469;SDS011;41334;47.872;16.384;2022-10-16T04:21:31;22.45;;;12.38;;
55469;SDS011;41334;47.872;16.384;2022-10-16T04:24:33;27.48;;;14.07;;
55469;SDS011;41334;47.872;16.384;2022-10-16T04:27:35;24.90;;;13.27;;
55469;SDS011;41334;47.872;16.384;2022-10-16T04:30:39;26.27;;;14.80;;
55469;SDS011;41334;47.872;16.384;2022-10-16T04:33:44;24.83;;;12.27;;
55469;SDS011;41334;47.872;16.384;2022-10-16T04:36:49;23.83;;;14.07;;
55469;SDS011;41334;47.872;16.384;2022-10-16T04:39:51;24.30;;;11.02;;
55469;SDS011;41334;47.872;16.384;2022-10-16T04:42:53;17.33;;;10.43;;
55469;SDS011;41334;47.872;16.384;2022-10-16T04:45:55;19.10;;;11.70;;
55469;SDS011;41334;47.872;16.384;2022-10-16T04:48:57;18.15;;;10.68;;
55469;SDS011;41334;47.872;16.384;2022-10-16T04:51:59;17.15;;;8.93;;
55469;SDS011;41334;47.872;16.384;2022-10-16T04:55:01;18.35;;;10.48;;
55469;SDS011;41334;47.872;16.384;2022-10-16T04:58:04;20.92;;;11.93;;
55469;SDS011;41334;47.872;16.384;2022-10-16T05:01:06;17.48;;;10.30;;
55469;SDS011;41334;47.872;16.384;2022-10-16T05:04:08;18.48;;;10.73;;
55469;SDS011;41334;47.872;16.384;2022-10-16T05:07:10;15.20;;;8.90;;
55469;SDS011;41334;47.872;16.384;2022-10-16T05:10:11;17.05;;;11.10;;
55469;SDS011;41334;47.872;16.384;2022-10-16T05:13:13;11.25;;;6.72;;
55469;SDS011;41334;47.872;16.384;2022-10-16T05:16:15;12.15;;;7.03;;
55469;SDS011;41334;47.872;16.384;2022-10-16T05:19:17;17.58;;;10.88;;
55469;SDS011;41334;47.872;16.384;2022-10-16T05:22:28;19.13;;;11.57;;
55469;SDS011;41334;47.872;16.384;2022-10-16T05:25:30;19.55;;;11.32;;
55469;SDS011;41334;47.872;16.384;2022-10-16T05:28:32;13.95;;;7.57;;
55469;SDS011;41334;47.872;16.384;2022-10-16T05:31:34;23.90;;;12.32;;
55469;SDS011;41334;47.872;16.384;2022-10-16T05:34:35;19.98;;;11.52;;
55469;SDS011;41334;47.872;16.384;2022-10-16T05:37:37;24.77;;;13.07;;
55469;SDS011;41334;47.872;16.384;2022-10-16T05:40:39;29.38;;;16.27;;
55469;SDS011;41334;47.872;16.384;2022-10-16T05:43:40;19.08;;;11.57;;
55469;SDS011;41334;47.872;16.384;2022-10-16T05:46:42;22.55;;;11.60;;
55469;SDS011;41334;47.872;16.384;2022-10-16T05:49:44;21.98;;;11.52;;
55469;SDS011;41334;47.872;16.384;2022-10-16T05:52:46;25.75;;;13.43;;
55469;SDS011;41334;47.872;16.384;2022-10-16T05:55:51;19.42;;;10.70;;
55469;SDS011;41334;47.872;16.384;2022-10-16T05:58:54;20.55;;;10.10;;
55469;SDS011;41334;47.872;16.384;2022-10-16T06:01:56;21.85;;;12.18;;
55469;SDS011;41334;47.872;16.384;2022-10-16T06:04:58;10.20;;;6.88;;
55469;SDS011;41334;47.872;16.384;2022-10-16T06:08:00;23.25;;;12.77;;
55469;SDS011;41334;47.872;16.384;2022-10-16T06:11:06;21.08;;;11.82;;
55469;SDS011;41334;47.872;16.384;2022-10-16T06:14:09;25.92;;;13.05;;
55469;SDS011;41334;47.872;16.384;2022-10-16T06:17:11;20.10;;;11.73;;
55469;SDS011;41334;47.872;16.384;2022-10-16T06:20:13;23.27;;;12.15;;
55469;SDS011;41334;47.872;16.384;2022-10-16T06:23:15;23.63;;;12.13;;
55469;SDS011;41334;47.872;16.384;2022-10-16T06:26:18;21.90;;;11.55;;
55469;SDS011;41334;47.872;16.384;2022-10-16T06:29:21;22.35;;;12.02;;
55469;SDS011;41334;47.872;16.384;2022-10-16T06:32:23;21.08;;;11.73;;
55469;SDS011;41334;47.872;16.384;2022-10-16T06:35:24;22.83;;;11.27;;
55469;SDS011;41334;47.872;16.384;2022-10-16T06:38:26;21.90;;;11.30;;
55469;SDS011;41334;47.872;16.384;2022-10-16T06:41:28;19.05;;;10.75;;
55469;SDS011;41334;47.872;16.384;2022-10-16T06:44:31;23.25;;;13.68;;
55469;SDS011;41334;47.872;16.384;2022-10-16T06:47:33;25.25;;;13.85;;
55469;SDS011;41334;47.872;16.384;2022-10-16T06:50:34;30.45;;;15.55;;
55469;SDS011;41334;47.872;16.384;2022-10-16T06:53:37;26.77;;;13.48;;
55469;SDS011;41334;47.872;16.384;2022-10-16T06:57:01;25.48;;;14.00;;
55469;SDS011;41334;47.872;16.384;2022-10-16T07:00:03;24.60;;;12.80;;
55469;SDS011;41334;47.872;16.384;2022-10-16T07:03:05;25.30;;;14.20;;
55469;SDS011;41334;47.872;16.384;2022-10-16T07:06:07;22.58;;;10.93;;
55469;SDS011;41334;47.872;16.384;2022-10-16T07:09:11;31.55;;;14.65;;
55469;SDS011;41334;47.872;16.384;2022-10-16T07:12:13;22.02;;;12.40;;
55469;SDS011;41334;47.872;16.384;2022-10-16T07:15:14;22.73;;;13.00;;
55469;SDS011;41334;47.872;16.384;2022-10-16T07:18:16;31.92;;;15.50;;
55469;SDS011;41334;47.872;16.384;2022-10-16T07:21:19;25.15;;;12.52;;
55469;SDS011;41334;47.872;16.384;2022-10-16T07:24:22;23.42;;;13.75;;
55469;SDS011;41334;47.872;16.384;2022-10-16T07:27:24;24.65;;;13.77;;
55469;SDS011;41334;47.872;16.384;2022-10-16T07:30:26;26.27;;;13.85;;
55469;SDS011;41334;47.872;16.384;2022-10-16T07:33:28;23.55;;;12.80;;
55469;SDS011;41334;47.872;16.384;2022-10-16T07:36:30;22.98;;;13.57;;
55469;SDS011;41334;47.872;16.384;2022-10-16T07:39:32;25.02;;;13.75;;
55469;SDS011;41334;47.872;16.384;2022-10-16T07:42:33;26.88;;;14.10;;
55469;SDS011;41334;47.872;16.384;2022-10-16T07:45:38;25.58;;;13.40;;
55469;SDS011;41334;47.872;16.384;2022-10-16T07:48:49;25.20;;;13.35;;
55469;SDS011;41334;47.872;16.384;2022-10-16T07:51:51;24.40;;;12.20;;
55469;SDS011;41334;47.872;16.384;2022-10-16T07:54:53;30.90;;;15.32;;
55469;SDS011;41334;47.872;16.384;2022-10-16T07:57:56;24.08;;;13.27;;
55469;SDS011;41334;47.872;16.384;2022-10-16T08:00:58;26.52;;;13.20;;
55469;SDS011;41334;47.872;16.384;2022-10-16T08:04:00;25.55;;;13.27;;
55469;SDS011;41334;47.872;16.384;2022-10-16T08:07:02;26.13;;;14.73;;
55469;SDS011;41334;47.872;16.384;2022-10-16T08:10:03;19.77;;;9.98;;
55469;SDS011;41334;47.872;16.384;2022-10-16T08:13:06;8.52;;;4.70;;
55469;SDS011;41334;47.872;16.384;2022-10-16T08:16:12;27.40;;;14.30;;
55469;SDS011;41334;47.872;16.384;2022-10-16T08:19:14;36.90;;;15.00;;
55469;SDS011;41334;47.872;16.384;2022-10-16T08:22:17;28.10;;;15.73;;
55469;SDS011;41334;47.872;16.384;2022-10-16T08:25:18;27.58;;;14.30;;
55469;SDS011;41334;47.872;16.384;2022-10-16T08:28:21;28.83;;;13.82;;
55469;SDS011;41334;47.872;16.384;2022-10-16T08:31:23;32.13;;;16.02;;
55469;SDS011;41334;47.872;16.384;2022-10-16T08:34:25;30.85;;;13.63;;
55469;SDS011;41334;47.872;16.384;2022-10-16T08:37:31;15.02;;;8.23;;
55469;SDS011;41334;47.872;16.384;2022-10-16T08:43:51;25.08;;;13.35;;
55469;SDS011;41334;47.872;16.384;2022-10-16T08:50:23;26.95;;;14.63;;
55469;SDS011;41334;47.872;16.384;2022-10-16T08:53:51;36.53;;;18.58;;
55469;SDS011;41334;47.872;16.384;2022-10-16T08:56:55;29.40;;;16.60;;
55469;SDS011;41334;47.872;16.384;2022-10-16T09:00:00;30.65;;;15.32;;
55469;SDS011;41334;47.872;16.384;2022-10-16T09:06:46;25.33;;;15.02;;
55469;SDS011;41334;47.872;16.384;2022-10-16T09:13:28;35.97;;;16.63;;
55469;SDS011;41334;47.872;16.384;2022-10-16T09:16:39;30.02;;;16.50;;
55469;SDS011;41334;47.872;16.384;2022-10-16T09:19:46;32.13;;;16.13;;
55469;SDS011;41334;47.872;16.384;2022-10-16T09:26:09;29.27;;;16.40;;
55469;SDS011;41334;47.872;16.384;2022-10-16T09:29:14;31.45;;;16.15;;
55469;SDS011;41334;47.872;16.384;2022-10-16T09:32:18;29.08;;;17.35;;
55469;SDS011;41334;47.872;16.384;2022-10-16T09:35:23;22.95;;;13.40;;
55469;SDS011;41334;47.872;16.384;2022-10-16T09:38:35;18.42;;;10.35;;
55469;SDS011;41334;47.872;16.384;2022-10-16T09:41:38;34.97;;;17.42;;
55469;SDS011;41334;47.872;16.384;2022-10-16T09:44:46;26.97;;;16.10;;
55469;SDS011;41334;47.872;16.384;2022-10-16T09:47:50;32.05;;;17.38;;
55469;SDS011;41334;47.872;16.384;2022-10-16T09:50:58;31.27;;;15.32;;
55469;SDS011;41334;47.872;16.384;2022-10-16T09:57:11;30.35;;;17.13;;
55469;SDS011;41334;47.872;16.384;2022-10-16T10:00:17;42.42;;;16.77;;
55469;SDS011;41334;47.872;16.384;2022-10-16T10:03:39;33.88;;;18.10;;
55469;SDS011;41334;47.872;16.384;2022-10-16T10:06:43;31.67;;;18.83;;
55469;SDS011;41334;47.872;16.384;2022-10-16T10:09:48;26.80;;;15.80;;
55469;SDS011;41334;47.872;16.384;2022-10-16T10:12:50;32.53;;;18.58;;
55469;SDS011;41334;47.872;16.384;2022-10-16T10:15:52;32.72;;;16.88;;
55469;SDS011;41334;47.872;16.384;2022-10-16T10:18:58;31.20;;;18.38;;
55469;SDS011;41334;47.872;16.384;2022-10-16T10:22:00;29.90;;;17.10;;
55469;SDS011;41334;47.872;16.384;2022-10-16T10:31:43;29.65;;;17.75;;
55469;SDS011;41334;47.872;16.384;2022-10-16T10:35:04;26.85;;;16.40;;
55469;SDS011;41334;47.872;16.384;2022-10-16T10:41:21;32.03;;;16.15;;
55469;SDS011;41334;47.872;16.384;2022-10-16T11:01:15;36.92;;;19.35;;
55469;SDS011;41334;47.872;16.384;2022-10-16T11:04:32;36.17;;;20.77;;
55469;SDS011;41334;47.872;16.384;2022-10-16T11:14:09;34.58;;;21.83;;
55469;SDS011;41334;47.872;16.384;2022-10-16T11:17:20;32.08;;;19.58;;
55469;SDS011;41334;47.872;16.384;2022-10-16T11:21:03;33.67;;;19.30;;
55469;SDS011;41334;47.872;16.384;2022-10-16T11:27:08;31.90;;;19.25;;
55469;SDS011;41334;47.872;16.384;2022-10-16T11:30:18;29.33;;;17.73;;
55469;SDS011;41334;47.872;16.384;2022-10-16T11:33:30;34.80;;;19.42;;
55469;SDS011;41334;47.872;16.384;2022-10-16T11:36:40;32.28;;;19.00;;
55469;SDS011;41334;47.872;16.384;2022-10-16T11:43:38;30.08;;;18.10;;
55469;SDS011;41334;47.872;16.384;2022-10-16T11:46:52;34.42;;;20.05;;
55469;SDS011;41334;47.872;16.384;2022-10-16T11:56:48;36.42;;;20.13;;
55469;SDS011;41334;47.872;16.384;2022-10-16T11:59:58;31.48;;;19.25;;
55469;SDS011;41334;47.872;16.384;2022-10-16T12:06:34;29.98;;;18.42;;
55469;SDS011;41334;47.872;16.384;2022-10-16T12:09:38;27.17;;;16.70;;
55469;SDS011;41334;47.872;16.384;2022-10-16T12:12:42;32.35;;;18.38;;
55469;SDS011;41334;47.872;16.384;2022-10-16T12:15:46;30.10;;;18.73;;
55469;SDS011;41334;47.872;16.384;2022-10-16T12:19:09;28.80;;;18.33;;
55469;SDS011;41334;47.872;16.384;2022-10-16T12:22:17;34.97;;;20.52;;
55469;SDS011;41334;47.872;16.384;2022-10-16T12:25:20;29.63;;;18.75;;
55469;SDS011;41334;47.872;16.384;2022-10-16T12:28:47;31.45;;;18.40;;
55469;SDS011;41334;47.872;16.384;2022-10-16T12:31:53;30.57;;;18.37;;
55469;SDS011;41334;47.872;16.384;2022-10-16T12:35:02;32.58;;;19.10;;
55469;SDS011;41334;47.872;16.384;2022-10-16T12:38:16;30.90;;;17.00;;
55469;SDS011;41334;47.872;16.384;2022-10-16T12:41:27;29.73;;;17.27;;
55469;SDS011;41334;47.872;16.384;2022-10-16T12:44:35;31.15;;;18.50;;
55469;SDS011;41334;47.872;16.384;2022-10-16T12:47:38;29.42;;;17.13;;
55469;SDS011;41334;47.872;16.384;2022-10-16T12:50:50;28.63;;;18.52;;
55469;SDS011;41334;47.872;16.384;2022-10-16T12:53:58;32.72;;;18.40;;
55469;SDS011;41334;47.872;16.384;2022-10-16T12:57:19;27.67;;;17.52;;
55469;SDS011;41334;47.872;16.384;2022-10-16T13:00:44;22.48;;;15.02;;
55469;SDS011;41334;47.872;16.384;2022-10-16T13:10:40;29.23;;;19.00;;
55469;SDS011;41334;47.872;16.384;2022-10-16T13:17:22;31.08;;;16.13;;
55469;SDS011;41334;47.872;16.384;2022-10-16T13:27:16;17.67;;;11.23;;
55469;SDS011;41334;47.872;16.384;2022-10-16T13:30:29;25.27;;;15.55;;
55469;SDS011;41334;47.872;16.384;2022-10-16T13:33:36;20.83;;;13.80;;
55469;SDS011;41334;47.872;16.384;2022-10-16T13:36:48;23.50;;;14.98;;
55469;SDS011;41334;47.872;16.384;2022-10-16T13:43:26;26.65;;;14.45;;
55469;SDS011;41334;47.872;16.384;2022-10-16T13:46:33;25.73;;;13.38;;
55469;SDS011;41334;47.872;16.384;2022-10-16T13:49:35;25.05;;;13.45;;
55469;SDS011;41334;47.872;16.384;2022-10-16T13:52:37;20.88;;;13.30;;
55469;SDS011;41334;47.872;16.384;2022-10-16T13:55:39;23.00;;;12.88;;
55469;SDS011;41334;47.872;16.384;2022-10-16T13:58:42;20.60;;;13.23;;
55469;SDS011;41334;47.872;16.384;2022-10-16T14:01:44;20.00;;;11.57;;
55469;SDS011;41334;47.872;16.384;2022-10-16T14:04:46;23.77;;;14.05;;
55469;SDS011;41334;47.872;16.384;2022-10-16T14:07:49;21.77;;;14.35;;
55469;SDS011;41334;47.872;16.384;2022-10-16T14:10:54;22.50;;;13.80;;
55469;SDS011;41334;47.872;16.384;2022-10-16T14:13:58;25.70;;;14.35;;
55469;SDS011;41334;47.872;16.384;2022-10-16T14:17:00;26.52;;;13.15;;
55469;SDS011;41334;47.872;16.384;2022-10-16T14:20:04;25.17;;;14.48;;
55469;SDS011;41334;47.872;16.384;2022-10-16T14:23:21;28.70;;;13.63;;
55469;SDS011;41334;47.872;16.384;2022-10-16T14:26:29;20.80;;;14.25;;
55469;SDS011;41334;47.872;16.384;2022-10-16T14:29:42;23.60;;;12.20;;
55469;SDS011;41334;47.872;16.384;2022-10-16T14:32:54;20.73;;;12.77;;
55469;SDS011;41334;47.872;16.384;2022-10-16T14:39:17;22.17;;;13.40;;
55469;SDS011;41334;47.872;16.384;2022-10-16T14:42:22;27.67;;;13.45;;
55469;SDS011;41334;47.872;16.384;2022-10-16T14:45:28;19.92;;;13.20;;
55469;SDS011;41334;47.872;16.384;2022-10-16T14:48:32;27.88;;;13.45;;
55469;SDS011;41334;47.872;16.384;2022-10-16T14:51:34;17.42;;;10.10;;
55469;SDS011;41334;47.872;16.384;2022-10-16T14:54:36;19.33;;;13.38;;
55469;SDS011;41334;47.872;16.384;2022-10-16T14:57:38;21.55;;;12.60;;
55469;SDS011;41334;47.872;16.384;2022-10-16T15:00:40;18.25;;;11.27;;
55469;SDS011;41334;47.872;16.384;2022-10-16T15:03:42;22.15;;;12.32;;
55469;SDS011;41334;47.872;16.384;2022-10-16T15:06:45;21.92;;;13.25;;
55469;SDS011;41334;47.872;16.384;2022-10-16T15:09:46;21.67;;;12.23;;
55469;SDS011;41334;47.872;16.384;2022-10-16T15:12:49;20.10;;;12.35;;
55469;SDS011;41334;47.872;16.384;2022-10-16T15:15:51;19.70;;;12.25;;
55469;SDS011;41334;47.872;16.384;2022-10-16T15:18:54;19.55;;;12.15;;
55469;SDS011;41334;47.872;16.384;2022-10-16T15:21:56;23.50;;;11.98;;
55469;SDS011;41334;47.872;16.384;2022-10-16T15:24:58;21.67;;;12.43;;
55469;SDS011;41334;47.872;16.384;2022-10-16T15:28:00;16.38;;;10.85;;
55469;SDS011;41334;47.872;16.384;2022-10-16T15:31:03;14.98;;;10.30;;
55469;SDS011;41334;47.872;16.384;2022-10-16T15:34:05;17.70;;;11.85;;
55469;SDS011;41334;47.872;16.384;2022-10-16T15:37:09;19.90;;;12.38;;
55469;SDS011;41334;47.872;16.384;2022-10-16T15:40:13;18.45;;;10.80;;
55469;SDS011;41334;47.872;16.384;2022-10-16T15:43:16;17.63;;;9.70;;
55469;SDS011;41334;47.872;16.384;2022-10-16T15:46:19;24.50;;;11.40;;
55469;SDS011;41334;47.872;16.384;2022-10-16T15:49:22;16.60;;;9.85;;
55469;SDS011;41334;47.872;16.384;2022-10-16T15:52:24;13.02;;;8.00;;
55469;SDS011;41334;47.872;16.384;2022-10-16T15:55:26;16.40;;;10.90;;
55469;SDS011;41334;47.872;16.384;2022-10-16T15:58:28;16.38;;;11.00;;
55469;SDS011;41334;47.872;16.384;2022-10-16T16:01:32;19.75;;;12.20;;
55469;SDS011;41334;47.872;16.384;2022-10-16T16:04:35;18.52;;;10.98;;
55469;SDS011;41334;47.872;16.384;2022-10-16T16:07:45;18.00;;;11.18;;
55469;SDS011;41334;47.872;16.384;2022-10-16T16:11:00;18.30;;;11.68;;
55469;SDS011;41334;47.872;16.384;2022-10-16T16:14:05;21.45;;;11.38;;
55469;SDS011;41334;47.872;16.384;2022-10-16T16:17:07;24.92;;;11.82;;
55469;SDS011;41334;47.872;16.384;2022-10-16T16:20:09;20.38;;;12.25;;
55469;SDS011;41334;47.872;16.384;2022-10-16T16:23:11;22.40;;;12.75;;
55469;SDS011;41334;47.872;16.384;2022-10-16T16:26:14;12.73;;;8.13;;
55469;SDS011;41334;47.872;16.384;2022-10-16T16:29:27;17.77;;;10.32;;
55469;SDS011;41334;47.872;16.384;2022-10-16T16:32:29;17.65;;;11.48;;
55469;SDS011;41334;47.872;16.384;2022-10-16T16:35:31;19.25;;;12.60;;
55469;SDS011;41334;47.872;16.384;2022-10-16T16:38:33;12.68;;;9.20;;
55469;SDS011;41334;47.872;16.384;2022-10-16T16:41:35;18.20;;;11.23;;
55469;SDS011;41334;47.872;16.384;2022-10-16T16:44:36;18.02;;;10.63;;
55469;SDS011;41334;47.872;16.384;2022-10-16T16:47:38;17.95;;;11.32;;
55469;SDS011;41334;47.872;16.384;2022-10-16T16:50:40;19.23;;;11.63;;
55469;SDS011;41334;47.872;16.384;2022-10-16T16:53:42;19.30;;;11.48;;
55469;SDS011;41334;47.872;16.384;2022-10-16T16:56:45;20.13;;;11.98;;
55469;SDS011;41334;47.872;16.384;2022-10-16T16:59:49;20.92;;;11.07;;
55469;SDS011;41334;47.872;16.384;2022-10-16T17:02:51;19.42;;;12.18;;
55469;SDS011;41334;47.872;16.384;2022-10-16T17:06:00;15.40;;;9.55;;
55469;SDS011;41334;47.872;16.384;2022-10-16T17:09:04;17.52;;;11.13;;
55469;SDS011;41334;47.872;16.384;2022-10-16T17:12:07;16.20;;;9.52;;
55469;SDS011;41334;47.872;16.384;2022-10-16T17:15:08;18.63;;;11.07;;
55469;SDS011;41334;47.872;16.384;2022-10-16T17:18:11;18.92;;;11.40;;
55469;SDS011;41334;47.872;16.384;2022-10-16T17:21:12;16.83;;;10.88;;
55469;SDS011;41334;47.872;16.384;2022-10-16T17:24:14;20.90;;;12.13;;
55469;SDS011;41334;47.872;16.384;2022-10-16T17:27:17;19.70;;;11.27;;
55469;SDS011;41334;47.872;16.384;2022-10-16T17:30:19;17.08;;;10.43;;
55469;SDS011;41334;47.872;16.384;2022-10-16T17:33:21;18.35;;;11.50;;
55469;SDS011;41334;47.872;16.384;2022-10-16T17:36:23;19.13;;;11.30;;
55469;SDS011;41334;47.872;16.384;2022-10-16T17:39:24;18.83;;;11.48;;
55469;SDS011;41334;47.872;16.384;2022-10-16T17:42:26;19.98;;;11.60;;
55469;SDS011;41334;47.872;16.384;2022-10-16T17:45:29;17.55;;;10.35;;
55469;SDS011;41334;47.872;16.384;2022-10-16T17:48:31;21.08;;;12.05;;
55469;SDS011;41334;47.872;16.384;2022-10-16T17:51:37;24.30;;;13.23;;
55469;SDS011;41334;47.872;16.384;2022-10-16T17:54:38;21.08;;;12.15;;
55469;SDS011;41334;47.872;16.384;2022-10-16T17:57:41;20.10;;;12.20;;
55469;SDS011;41334;47.872;16.384;2022-10-16T18:00:43;19.90;;;11.18;;
55469;SDS011;41334;47.872;16.384;2022-10-16T18:04:04;19.02;;;11.05;;
55469;SDS011;41334;47.872;16.384;2022-10-16T18:07:16;22.85;;;13.05;;
55469;SDS011;41334;47.872;16.384;2022-10-16T18:10:18;21.58;;;12.07;;
55469;SDS011;41334;47.872;16.384;2022-10-16T18:13:21;21.02;;;12.88;;
55469;SDS011;41334;47.872;16.384;2022-10-16T18:16:23;17.83;;;10.20;;
55469;SDS011;41334;47.872;16.384;2022-10-16T18:19:26;19.80;;;12.27;;
55469;SDS011;41334;47.872;16.384;2022-10-16T18:22:28;18.10;;;9.52;;
55469;SDS011;41334;47.872;16.384;2022-10-16T18:25:31;21.80;;;12.05;;
55469;SDS011;41334;47.872;16.384;2022-10-16T18:28:33;22.13;;;11.85;;
55469;SDS011;41334;47.872;16.384;2022-10-16T18:31:34;22.63;;;12.00;;
55469;SDS011;41334;47.872;16.384;2022-10-16T18:34:43;24.17;;;11.35;;
55469;SDS011;41334;47.872;16.384;2022-10-16T18:37:44;23.63;;;13.52;;
55469;SDS011;41334;47.872;16.384;2022-10-16T18:40:46;28.65;;;12.82;;
55469;SDS011;41334;47.872;16.384;2022-10-16T18:43:48;22.00;;;12.60;;
55469;SDS011;41334;47.872;16.384;2022-10-16T18:46:56;21.13;;;11.75;;
55469;SDS011;41334;47.872;16.384;2022-10-16T18:49:59;18.38;;;10.98;;
55469;SDS011;41334;47.872;16.384;2022-10-16T18:53:01;21.23;;;12.75;;
55469;SDS011;41334;47.872;16.384;2022-10-16T18:56:07;22.10;;;13.18;;
55469;SDS011;41334;47.872;16.384;2022-10-16T18:59:09;21.60;;;11.85;;
55469;SDS011;41334;47.872;16.384;2022-10-16T19:02:11;25.92;;;12.38;;
55469;SDS011;41334;47.872;16.384;2022-10-16T19:05:13;23.05;;;12.02;;
55469;SDS011;41334;47.872;16.384;2022-10-16T19:08:16;20.77;;;12.20;;
55469;SDS011;41334;47.872;16.384;2022-10-16T19:11:18;22.20;;;12.07;;
55469;SDS011;41334;47.872;16.384;2022-10-16T19:14:22;21.30;;;12.50;;
55469;SDS011;41334;47.872;16.384;2022-10-16T19:17:24;19.65;;;10.65;;
55469;SDS011;41334;47.872;16.384;2022-10-16T19:20:25;24.60;;;14.05;;
55469;SDS011;41334;47.872;16.384;2022-10-16T19:23:27;25.50;;;12.70;;
55469;SDS011;41334;47.872;16.384;2022-10-16T19:26:29;26.13;;;11.05;;
55469;SDS011;41334;47.872;16.384;2022-10-16T19:29:34;20.40;;;12.10;;
55469;SDS011;41334;47.872;16.384;2022-10-16T19:32:36;27.73;;;12.88;;
55469;SDS011;41334;47.872;16.384;2022-10-16T19:35:38;20.25;;;10.32;;